createdAt,value
2023-08-15T00:00:06.778Z,19.04
2023-08-15T00:01:06.845Z,18.92
2023-08-15T00:02:06.744Z,18.86
2023-08-15T00:03:06.913Z,18.93
2023-08-15T00:04:06.757Z,18.89
2023-08-15T00:05:06.777Z,18.88
2023-08-15T00:06:06.730Z,18.90
2023-08-15T00:07:06.816Z,18.93
2023-08-15T00:08:06.703Z,18.90
2023-08-15T00:09:06.713Z,18.89
2023-08-15T00:10:06.693Z,19.07
2023-08-15T00:11:06.700Z,18.93
2023-08-15T00:12:06.666Z,18.99
2023-08-15T00:13:06.734Z,18.93
2023-08-15T00:14:06.730Z,18.95
2023-08-15T00:15:06.691Z,18.95
2023-08-15T00:16:06.662Z,18.93
2023-08-15T00:17:06.639Z,18.92
2023-08-15T00:18:06.664Z,19.00
2023-08-15T00:19:06.646Z,18.96
2023-08-15T00:20:06.611Z,18.92
2023-08-15T00:21:06.756Z,18.81
2023-08-15T00:22:06.638Z,18.95
2023-08-15T00:23:06.597Z,18.93
2023-08-15T00:24:06.591Z,18.93
2023-08-15T00:25:06.606Z,18.90
2023-08-15T00:26:06.574Z,18.93
2023-08-15T00:27:06.601Z,18.86
2023-08-15T00:28:06.547Z,18.92
2023-08-15T00:29:06.564Z,18.89
2023-08-15T00:30:06.583Z,19.02
2023-08-15T00:31:06.563Z,18.92
2023-08-15T00:32:06.519Z,18.95
2023-08-15T00:33:06.544Z,18.83
2023-08-15T00:34:06.499Z,18.80
2023-08-15T00:35:06.517Z,18.84
2023-08-15T00:36:06.499Z,18.95
2023-08-15T00:37:06.499Z,18.80
2023-08-15T00:38:06.514Z,18.83
2023-08-15T00:39:06.507Z,18.74
2023-08-15T00:40:06.459Z,18.77
2023-08-15T00:41:06.457Z,18.84
2023-08-15T00:42:06.447Z,18.81
2023-08-15T00:43:06.446Z,18.78
2023-08-15T00:44:06.481Z,18.66
2023-08-15T00:45:06.449Z,18.65
2023-08-15T00:46:06.491Z,18.68
2023-08-15T00:47:06.408Z,18.66
2023-08-15T00:48:06.485Z,18.68
2023-08-15T00:49:06.412Z,18.77
2023-08-15T00:50:06.383Z,18.71
2023-08-15T00:51:06.413Z,18.86
2023-08-15T00:52:06.371Z,18.84
2023-08-15T00:53:06.376Z,18.86
2023-08-15T00:54:06.381Z,18.88
2023-08-15T00:55:06.359Z,18.88
2023-08-15T00:56:06.344Z,18.88
2023-08-15T00:57:06.359Z,18.83
2023-08-15T00:58:06.337Z,18.84
2023-08-15T00:59:06.350Z,18.84
2023-08-15T01:00:06.345Z,18.75
2023-08-15T01:01:06.341Z,18.86
2023-08-15T01:02:06.338Z,18.75
2023-08-15T01:03:06.378Z,18.83
2023-08-15T01:04:06.279Z,18.68
2023-08-15T01:05:06.320Z,18.55
2023-08-15T01:06:06.286Z,18.52
2023-08-15T01:07:06.299Z,18.56
2023-08-15T01:08:06.250Z,18.66
2023-08-15T01:09:06.267Z,18.80
2023-08-15T01:10:06.255Z,18.81
2023-08-15T01:11:06.245Z,18.77
2023-08-15T01:12:06.243Z,18.77
2023-08-15T01:13:06.240Z,18.78
2023-08-15T01:14:06.200Z,18.65
2023-08-15T01:15:06.221Z,18.71
2023-08-15T01:16:06.214Z,18.71
2023-08-15T01:17:06.207Z,18.45
2023-08-15T01:18:06.197Z,18.49
2023-08-15T01:19:06.188Z,18.52
2023-08-15T01:20:06.164Z,18.49
2023-08-15T01:21:06.179Z,18.56
2023-08-15T01:22:06.153Z,18.55
2023-08-15T01:23:06.182Z,18.58
2023-08-15T01:24:06.146Z,18.56
2023-08-15T01:25:06.146Z,18.58
2023-08-15T01:26:06.117Z,18.59
2023-08-15T01:27:06.132Z,18.71
2023-08-15T01:28:06.105Z,18.80
2023-08-15T01:29:06.141Z,18.73
2023-08-15T01:30:06.115Z,18.78
2023-08-15T01:31:06.097Z,18.80
2023-08-15T01:32:06.087Z,18.80
2023-08-15T01:33:06.119Z,18.83
2023-08-15T01:34:06.064Z,18.81
2023-08-15T01:35:06.087Z,18.83
2023-08-15T01:36:06.067Z,18.80
2023-08-15T01:37:06.052Z,18.86
2023-08-15T01:38:06.034Z,18.77
2023-08-15T01:39:06.048Z,18.86
2023-08-15T01:40:06.049Z,18.73
2023-08-15T01:41:06.026Z,18.73
2023-08-15T01:42:06.011Z,18.74
2023-08-15T01:43:06.020Z,18.84
2023-08-15T01:44:05.987Z,18.56
2023-08-15T01:45:06.020Z,18.59
2023-08-15T01:46:06.004Z,18.55
2023-08-15T01:47:05.983Z,18.49
2023-08-15T01:48:05.986Z,18.44
2023-08-15T01:49:05.968Z,18.45
2023-08-15T01:50:05.948Z,18.41
2023-08-15T01:51:05.998Z,18.40
2023-08-15T01:52:06.000Z,18.43
2023-08-15T01:53:05.974Z,18.41
2023-08-15T01:54:05.925Z,18.44
2023-08-15T01:55:05.935Z,18.44
2023-08-15T01:56:05.929Z,18.38
2023-08-15T01:57:05.907Z,18.47
2023-08-15T01:58:05.901Z,18.55
2023-08-15T01:59:05.920Z,18.45
2023-08-15T02:00:05.883Z,18.49
2023-08-15T02:01:05.897Z,18.49
2023-08-15T02:02:05.857Z,18.47
2023-08-15T02:03:05.954Z,18.45
2023-08-15T02:04:05.845Z,18.47
2023-08-15T02:05:05.922Z,18.50
2023-08-15T02:06:05.824Z,18.41
2023-08-15T02:07:05.831Z,18.40
2023-08-15T02:08:05.814Z,18.43
2023-08-15T02:09:05.864Z,18.43
2023-08-15T02:10:05.806Z,18.53
2023-08-15T02:11:05.874Z,18.38
2023-08-15T02:12:05.779Z,18.31
2023-08-15T02:13:05.803Z,18.38
2023-08-15T02:14:05.765Z,18.34
2023-08-15T02:15:05.796Z,18.31
2023-08-15T02:16:05.827Z,18.19
2023-08-15T02:17:05.777Z,18.13
2023-08-15T02:18:05.769Z,18.16
2023-08-15T02:19:05.743Z,18.16
2023-08-15T02:20:06.073Z,18.18
2023-08-15T02:21:05.722Z,18.28
2023-08-15T02:22:05.695Z,18.18
2023-08-15T02:23:05.710Z,18.25
2023-08-15T02:24:05.704Z,18.33
2023-08-15T02:25:05.763Z,18.28
2023-08-15T02:26:05.670Z,18.38
2023-08-15T02:27:05.712Z,18.41
2023-08-15T02:28:05.653Z,18.44
2023-08-15T02:29:05.686Z,18.49
2023-08-15T02:30:05.664Z,18.44
2023-08-15T02:31:05.685Z,18.45
2023-08-15T02:32:05.647Z,18.38
2023-08-15T02:33:05.705Z,18.44
2023-08-15T02:34:05.631Z,18.49
2023-08-15T02:35:05.652Z,18.40
2023-08-15T02:36:05.599Z,18.44
2023-08-15T02:37:05.606Z,18.45
2023-08-15T02:38:05.580Z,18.50
2023-08-15T02:39:05.612Z,18.44
2023-08-15T02:40:05.572Z,18.59
2023-08-15T02:41:05.580Z,18.44
2023-08-15T02:42:05.545Z,18.55
2023-08-15T02:43:05.570Z,18.49
2023-08-15T02:44:05.553Z,18.44
2023-08-15T02:45:05.550Z,18.37
2023-08-15T02:46:05.538Z,18.38
2023-08-15T02:47:05.536Z,18.40
2023-08-15T02:48:05.542Z,18.38
2023-08-15T02:49:05.531Z,18.37
2023-08-15T02:50:05.498Z,18.47
2023-08-15T02:51:05.970Z,18.40
2023-08-15T02:52:05.503Z,18.52
2023-08-15T02:53:05.492Z,18.41
2023-08-15T02:54:05.476Z,18.45
2023-08-15T02:55:05.471Z,18.53
2023-08-15T02:56:05.444Z,18.47
2023-08-15T02:57:05.454Z,18.49
2023-08-15T02:58:05.446Z,18.49
2023-08-15T02:59:05.462Z,18.49
2023-08-15T03:00:05.432Z,18.41
2023-08-15T03:01:05.466Z,18.40
2023-08-15T03:02:05.428Z,18.35
2023-08-15T03:03:05.533Z,18.31
2023-08-15T03:04:05.394Z,18.23
2023-08-15T03:05:05.398Z,18.26
2023-08-15T03:06:05.382Z,18.26
2023-08-15T03:07:05.375Z,18.22
2023-08-15T03:08:05.365Z,18.33
2023-08-15T03:09:05.411Z,18.26
2023-08-15T03:10:05.351Z,18.28
2023-08-15T03:11:05.345Z,18.23
2023-08-15T03:12:05.326Z,18.26
2023-08-15T03:13:05.359Z,18.28
2023-08-15T03:14:05.324Z,18.20
2023-08-15T03:15:05.345Z,18.19
2023-08-15T03:16:05.339Z,18.13
2023-08-15T03:17:05.302Z,18.16
2023-08-15T03:18:05.297Z,18.31
2023-08-15T03:19:05.302Z,18.18
2023-08-15T03:20:05.259Z,18.22
2023-08-15T03:21:05.300Z,18.31
2023-08-15T03:22:05.246Z,18.28
2023-08-15T03:23:05.277Z,18.23
2023-08-15T03:24:05.228Z,18.26
2023-08-15T03:25:05.241Z,18.28
2023-08-15T03:26:05.219Z,18.25
2023-08-15T03:27:05.249Z,18.10
2023-08-15T03:28:05.211Z,18.13
2023-08-15T03:29:05.219Z,18.18
2023-08-15T03:30:05.186Z,18.11
2023-08-15T03:31:05.253Z,18.19
2023-08-15T03:32:05.201Z,18.31
2023-08-15T03:33:05.227Z,18.20
2023-08-15T03:34:05.175Z,18.25
2023-08-15T03:35:05.181Z,18.29
2023-08-15T03:36:05.150Z,18.28
2023-08-15T03:37:05.156Z,18.23
2023-08-15T03:38:05.131Z,18.29
2023-08-15T03:39:05.130Z,18.29
2023-08-15T03:40:05.252Z,18.26
2023-08-15T03:41:05.133Z,18.18
2023-08-15T03:42:05.132Z,18.26
2023-08-15T03:43:07.523Z,18.18
2023-08-15T03:44:05.122Z,18.15
2023-08-15T03:45:05.095Z,18.20
2023-08-15T03:46:05.224Z,18.08
2023-08-15T03:47:05.071Z,18.13
2023-08-15T03:48:05.218Z,18.04
2023-08-15T03:49:05.053Z,18.05
2023-08-15T03:50:05.079Z,18.08
2023-08-15T03:51:05.055Z,18.05
2023-08-15T03:52:05.031Z,18.03
2023-08-15T03:53:05.028Z,18.07
2023-08-15T03:54:04.993Z,18.08
2023-08-15T03:55:05.011Z,18.08
2023-08-15T03:56:04.984Z,18.08
2023-08-15T03:57:05.013Z,18.05
2023-08-15T03:58:04.995Z,18.16
2023-08-15T03:59:05.058Z,18.07
2023-08-15T04:00:04.979Z,18.13
2023-08-15T04:01:04.963Z,18.13
2023-08-15T04:02:04.979Z,18.16
2023-08-15T04:03:05.028Z,18.26
2023-08-15T04:04:04.957Z,18.34
2023-08-15T04:05:04.926Z,18.29
2023-08-15T04:06:04.904Z,18.28
2023-08-15T04:07:04.944Z,18.29
2023-08-15T04:08:04.880Z,18.29
2023-08-15T04:09:04.895Z,18.34
2023-08-15T04:10:04.921Z,18.34
2023-08-15T04:11:04.899Z,18.40
2023-08-15T04:12:04.869Z,18.33
2023-08-15T04:13:04.881Z,18.43
2023-08-15T04:14:04.901Z,18.41
2023-08-15T04:15:04.918Z,18.34
2023-08-15T04:16:04.887Z,18.35
2023-08-15T04:17:04.889Z,18.38
2023-08-15T04:18:04.924Z,18.29
2023-08-15T04:19:04.893Z,18.10
2023-08-15T04:20:04.909Z,18.08
2023-08-15T04:21:04.807Z,18.04
2023-08-15T04:22:04.792Z,18.01
2023-08-15T04:23:04.921Z,18.01
2023-08-15T04:24:04.773Z,18.11
2023-08-15T04:25:04.806Z,18.19
2023-08-15T04:26:04.805Z,18.19
2023-08-15T04:27:04.764Z,18.22
2023-08-15T04:28:04.746Z,18.23
2023-08-15T04:29:04.761Z,18.33
2023-08-15T04:30:04.723Z,18.31
2023-08-15T04:31:04.726Z,18.28
2023-08-15T04:32:04.738Z,18.37
2023-08-15T04:33:04.790Z,18.38
2023-08-15T04:34:04.696Z,18.28
2023-08-15T04:35:04.713Z,18.29
2023-08-15T04:36:04.697Z,18.28
2023-08-15T04:37:04.686Z,18.34
2023-08-15T04:38:04.662Z,18.45
2023-08-15T04:39:04.695Z,18.41
2023-08-15T04:40:04.670Z,18.41
2023-08-15T04:41:04.657Z,18.38
2023-08-15T04:42:04.633Z,18.43
2023-08-15T04:43:04.642Z,18.50
2023-08-15T04:44:04.649Z,18.44
2023-08-15T04:45:04.622Z,18.52
2023-08-15T04:46:04.754Z,18.50
2023-08-15T04:47:04.652Z,18.40
2023-08-15T04:48:04.642Z,18.49
2023-08-15T04:49:04.597Z,18.47
2023-08-15T04:50:04.577Z,18.59
2023-08-15T04:51:04.589Z,18.53
2023-08-15T04:52:04.592Z,18.58
2023-08-15T04:53:04.588Z,18.62
2023-08-15T04:54:04.548Z,18.73
2023-08-15T04:55:04.557Z,18.75
2023-08-15T04:56:04.554Z,18.62
2023-08-15T04:57:04.559Z,18.73
2023-08-15T04:58:04.517Z,18.71
2023-08-15T04:59:04.523Z,18.86
2023-08-15T05:00:04.502Z,18.86
2023-08-15T05:01:04.548Z,18.90
2023-08-15T05:02:04.495Z,19.02
2023-08-15T05:03:04.669Z,19.00
2023-08-15T05:04:04.505Z,19.07
2023-08-15T05:05:04.521Z,19.00
2023-08-15T05:06:04.458Z,19.02
2023-08-15T05:07:04.471Z,19.04
2023-08-15T05:08:04.501Z,19.04
2023-08-15T05:09:04.504Z,18.98
2023-08-15T05:10:04.432Z,18.92
2023-08-15T05:11:04.436Z,18.96
2023-08-15T05:12:04.427Z,18.99
2023-08-15T05:13:04.428Z,19.18
2023-08-15T05:14:04.423Z,19.09
2023-08-15T05:15:04.400Z,19.07
2023-08-15T05:16:04.436Z,19.08
2023-08-15T05:17:04.386Z,18.99
2023-08-15T05:18:04.375Z,19.00
2023-08-15T05:19:04.395Z,19.04
2023-08-15T05:20:04.362Z,18.77
2023-08-15T05:21:04.383Z,18.68
2023-08-15T05:22:04.430Z,18.59
2023-08-15T05:23:04.438Z,18.52
2023-08-15T05:24:04.326Z,18.45
2023-08-15T05:25:04.331Z,18.35
2023-08-15T05:26:04.327Z,18.40
2023-08-15T05:27:04.300Z,18.44
2023-08-15T05:28:04.281Z,18.52
2023-08-15T05:29:04.289Z,18.41
2023-08-15T05:30:04.262Z,18.37
2023-08-15T05:31:04.360Z,18.41
2023-08-15T05:32:04.300Z,18.38
2023-08-15T05:33:04.421Z,18.37
2023-08-15T05:34:04.547Z,18.38
2023-08-15T05:35:04.250Z,18.26
2023-08-15T05:36:04.218Z,18.35
2023-08-15T05:37:04.233Z,18.26
2023-08-15T05:38:04.209Z,18.23
2023-08-15T05:39:04.233Z,18.26
2023-08-15T05:40:05.116Z,18.31
2023-08-15T05:41:04.200Z,18.23
2023-08-15T05:42:04.175Z,18.28
2023-08-15T05:43:05.134Z,18.29
2023-08-15T05:44:04.151Z,18.34
2023-08-15T05:45:04.211Z,18.38
2023-08-15T05:46:11.163Z,18.37
2023-08-15T05:47:04.190Z,18.43
2023-08-15T05:48:04.192Z,18.47
2023-08-15T05:49:04.121Z,18.49
2023-08-15T05:50:04.118Z,18.43
2023-08-15T05:51:04.132Z,18.55
2023-08-15T05:52:04.089Z,18.50
2023-08-15T05:53:04.101Z,18.56
2023-08-15T05:54:04.090Z,18.52
2023-08-15T05:55:04.091Z,18.62
2023-08-15T05:56:04.073Z,18.50
2023-08-15T05:57:04.128Z,18.58
2023-08-15T05:58:04.073Z,18.56
2023-08-15T05:59:04.047Z,18.55
2023-08-15T06:00:04.044Z,18.52
2023-08-15T06:01:04.064Z,18.50
2023-08-15T06:02:04.005Z,18.62
2023-08-15T06:03:04.107Z,18.56
2023-08-15T06:04:04.116Z,18.58
2023-08-15T06:05:04.029Z,18.56
2023-08-15T06:06:03.984Z,18.70
2023-08-15T06:07:03.979Z,18.83
2023-08-15T06:08:03.973Z,18.90
2023-08-15T06:09:03.975Z,19.00
2023-08-15T06:10:03.952Z,19.26
2023-08-15T06:11:03.982Z,19.41
2023-08-15T06:12:03.935Z,19.55
2023-08-15T06:13:03.936Z,19.49
2023-08-15T06:14:03.921Z,19.58
2023-08-15T06:15:03.945Z,20.00
2023-08-15T06:16:03.926Z,20.47
2023-08-15T06:17:03.925Z,20.80
2023-08-15T06:18:03.946Z,20.72
2023-08-15T06:19:03.897Z,20.29
2023-08-15T06:20:03.871Z,20.26
2023-08-15T06:21:03.884Z,20.11
2023-08-15T06:22:04.912Z,20.19
2023-08-15T06:23:04.580Z,20.43
2023-08-15T06:24:03.835Z,20.25
2023-08-15T06:25:03.874Z,19.96
2023-08-15T06:26:03.831Z,19.94
2023-08-15T06:27:03.831Z,20.19
2023-08-15T06:28:03.871Z,20.77
2023-08-15T06:29:03.832Z,21.42
2023-08-15T06:30:03.800Z,22.00
2023-08-15T06:31:03.838Z,22.33
2023-08-15T06:32:03.778Z,22.65
2023-08-15T06:33:03.867Z,22.29
2023-08-15T06:34:03.788Z,21.60
2023-08-15T06:35:03.779Z,21.33
2023-08-15T06:36:03.755Z,21.06
2023-08-15T06:37:03.789Z,20.78
2023-08-15T06:38:03.733Z,20.81
2023-08-15T06:39:03.751Z,20.77
2023-08-15T06:40:03.730Z,20.77
2023-08-15T06:41:03.767Z,20.80
2023-08-15T06:42:03.715Z,20.88
2023-08-15T06:43:03.737Z,20.69
2023-08-15T06:44:03.700Z,20.70
2023-08-15T06:45:03.697Z,20.75
2023-08-15T06:46:03.712Z,20.80
2023-08-15T06:47:03.692Z,20.97
2023-08-15T06:48:03.707Z,21.69
2023-08-15T06:49:03.680Z,21.55
2023-08-15T06:50:03.654Z,21.60
2023-08-15T06:51:03.719Z,21.76
2023-08-15T06:52:03.634Z,21.98
2023-08-15T06:53:03.652Z,22.75
2023-08-15T06:54:03.626Z,22.98
2023-08-15T06:55:03.641Z,22.96
2023-08-15T06:56:04.630Z,22.87
2023-08-15T06:57:03.645Z,22.76
2023-08-15T06:58:03.610Z,23.21
2023-08-15T06:59:03.646Z,23.48
2023-08-15T07:00:03.574Z,23.56
2023-08-15T07:01:03.594Z,23.99
2023-08-15T07:02:03.560Z,24.78
2023-08-15T07:03:03.663Z,24.77
2023-08-15T07:04:03.598Z,24.30
2023-08-15T07:05:03.569Z,23.84
2023-08-15T07:06:03.547Z,23.84
2023-08-15T07:07:03.548Z,24.35
2023-08-15T07:08:03.530Z,24.91
2023-08-15T07:09:03.544Z,25.90
2023-08-15T07:10:03.532Z,25.83
2023-08-15T07:11:06.192Z,25.88
2023-08-15T07:12:03.498Z,26.02
2023-08-15T07:13:03.517Z,26.25
2023-08-15T07:14:03.495Z,26.85
2023-08-15T07:15:03.489Z,26.99
2023-08-15T07:16:03.513Z,26.84
2023-08-15T07:17:03.580Z,27.03
2023-08-15T07:18:03.493Z,27.22
2023-08-15T07:19:03.484Z,27.42
2023-08-15T07:20:03.453Z,27.39
2023-08-15T07:21:03.454Z,27.42
2023-08-15T07:22:03.436Z,27.73
2023-08-15T07:23:03.445Z,28.11
2023-08-15T07:24:03.414Z,28.05
2023-08-15T07:25:03.457Z,27.87
2023-08-15T07:26:03.402Z,28.23
2023-08-15T07:27:03.406Z,28.59
2023-08-15T07:28:03.396Z,28.67
2023-08-15T07:29:03.396Z,28.66
2023-08-15T07:30:03.392Z,27.59
2023-08-15T07:31:03.416Z,27.18
2023-08-15T07:32:03.410Z,27.40
2023-08-15T07:33:03.452Z,27.60
2023-08-15T07:34:03.345Z,27.92
2023-08-15T07:35:03.402Z,28.32
2023-08-15T07:36:03.352Z,28.44
2023-08-15T07:37:03.367Z,28.85
2023-08-15T07:38:03.630Z,28.78
2023-08-15T07:39:03.362Z,28.84
2023-08-15T07:40:03.318Z,29.24
2023-08-15T07:41:03.346Z,29.69
2023-08-15T07:42:03.316Z,29.95
2023-08-15T07:43:03.310Z,29.66
2023-08-15T07:44:03.296Z,28.79
2023-08-15T07:45:03.331Z,28.60
2023-08-15T07:46:03.381Z,28.91
2023-08-15T07:47:03.284Z,28.97
2023-08-15T07:48:03.321Z,28.56
2023-08-15T07:49:03.329Z,28.49
2023-08-15T07:50:03.251Z,28.88
2023-08-15T07:51:03.267Z,29.35
2023-08-15T07:52:03.229Z,29.23
2023-08-15T07:53:03.247Z,29.13
2023-08-15T07:54:03.245Z,29.49
2023-08-15T07:55:03.310Z,29.81
2023-08-15T07:56:03.217Z,29.45
2023-08-15T07:57:03.244Z,29.01
2023-08-15T07:58:03.234Z,29.20
2023-08-15T07:59:03.202Z,29.57
2023-08-15T08:00:03.187Z,30.06
2023-08-15T08:01:03.257Z,30.35
2023-08-15T08:02:03.178Z,30.59
2023-08-15T08:03:03.256Z,30.28
2023-08-15T08:04:03.203Z,30.57
2023-08-15T08:05:03.325Z,30.50
2023-08-15T08:06:05.890Z,30.72
2023-08-15T08:07:04.208Z,30.97
2023-08-15T08:08:03.164Z,31.18
2023-08-15T08:09:03.144Z,31.24
2023-08-15T08:10:03.150Z,31.62
2023-08-15T08:11:03.134Z,32.16
2023-08-15T08:12:03.105Z,32.23
2023-08-15T08:13:03.174Z,32.46
2023-08-15T08:14:03.082Z,32.37
2023-08-15T08:15:03.121Z,32.41
2023-08-15T08:16:03.072Z,31.64
2023-08-15T08:17:03.080Z,30.99
2023-08-15T08:18:03.078Z,30.81
2023-08-15T08:19:03.090Z,30.54
2023-08-15T08:20:05.129Z,30.48
2023-08-15T08:21:03.053Z,30.92
2023-08-15T08:22:03.056Z,31.28
2023-08-15T08:23:03.061Z,31.25
2023-08-15T08:24:03.034Z,31.37
2023-08-15T08:25:03.028Z,31.17
2023-08-15T08:26:03.003Z,31.10
2023-08-15T08:27:03.023Z,31.05
2023-08-15T08:28:02.990Z,31.62
2023-08-15T08:29:03.019Z,32.11
2023-08-15T08:30:02.973Z,32.36
2023-08-15T08:31:03.004Z,32.60
2023-08-15T08:32:02.990Z,33.01
2023-08-15T08:33:03.024Z,33.45
2023-08-15T08:34:02.959Z,33.19
2023-08-15T08:35:02.990Z,32.64
2023-08-15T08:36:02.945Z,31.09
2023-08-15T08:37:02.951Z,30.59
2023-08-15T08:38:02.999Z,29.73
2023-08-15T08:39:02.941Z,30.08
2023-08-15T08:40:02.925Z,30.44
2023-08-15T08:41:02.927Z,31.22
2023-08-15T08:42:02.904Z,31.97
2023-08-15T08:43:02.933Z,32.77
2023-08-15T08:44:02.931Z,33.08
2023-08-15T08:45:02.936Z,33.04
2023-08-15T08:46:02.947Z,32.87
2023-08-15T08:47:02.889Z,32.26
2023-08-15T08:48:02.927Z,32.67
2023-08-15T08:49:02.877Z,33.15
2023-08-15T08:50:02.891Z,32.86
2023-08-15T08:51:02.870Z,32.27
2023-08-15T08:52:02.841Z,31.94
2023-08-15T08:53:02.879Z,31.17
2023-08-15T08:54:02.854Z,31.71
2023-08-15T08:55:02.888Z,32.40
2023-08-15T08:56:02.849Z,32.78
2023-08-15T08:57:02.863Z,33.27
2023-08-15T08:58:02.818Z,33.45
2023-08-15T08:59:02.826Z,33.45
2023-08-15T09:00:02.795Z,33.61
2023-08-15T09:01:02.848Z,33.15
2023-08-15T09:02:02.804Z,33.36
2023-08-15T09:03:02.833Z,34.18
2023-08-15T09:04:02.781Z,34.73
2023-08-15T09:05:02.787Z,35.14
2023-08-15T09:06:02.761Z,35.12
2023-08-15T09:07:02.785Z,35.08
2023-08-15T09:08:02.741Z,35.08
2023-08-15T09:09:02.770Z,35.30
2023-08-15T09:10:02.725Z,35.10
2023-08-15T09:11:02.746Z,35.14
2023-08-15T09:12:02.746Z,35.14
2023-08-15T09:13:02.724Z,35.18
2023-08-15T09:14:02.709Z,35.24
2023-08-15T09:15:02.727Z,35.52
2023-08-15T09:16:02.726Z,34.23
2023-08-15T09:17:02.705Z,33.99
2023-08-15T09:18:02.786Z,32.75
2023-08-15T09:19:02.685Z,32.29
2023-08-15T09:20:02.691Z,32.21
2023-08-15T09:21:02.665Z,32.29
2023-08-15T09:22:02.639Z,32.48
2023-08-15T09:23:03.077Z,32.14
2023-08-15T09:24:02.652Z,30.81
2023-08-15T09:25:02.713Z,29.47
2023-08-15T09:26:02.672Z,29.79
2023-08-15T09:27:02.640Z,30.59
2023-08-15T09:28:02.606Z,31.15
2023-08-15T09:29:02.631Z,31.59
2023-08-15T09:30:02.593Z,32.41
2023-08-15T09:31:02.636Z,32.34
2023-08-15T09:32:02.617Z,32.78
2023-08-15T09:33:02.613Z,33.07
2023-08-15T09:34:02.572Z,32.23
2023-08-15T09:35:02.581Z,31.69
2023-08-15T09:36:02.567Z,31.61
2023-08-15T09:37:02.586Z,31.09
2023-08-15T09:38:02.550Z,30.55
2023-08-15T09:39:02.585Z,30.94
2023-08-15T09:40:02.548Z,31.25
2023-08-15T09:41:02.547Z,31.70
2023-08-15T09:42:02.549Z,31.90
2023-08-15T09:43:02.563Z,32.23
2023-08-15T09:44:02.516Z,32.15
2023-08-15T09:45:02.532Z,32.56
2023-08-15T09:46:02.499Z,32.74
2023-08-15T09:47:02.614Z,33.30
2023-08-15T09:48:02.532Z,33.47
2023-08-15T09:49:02.533Z,33.47
2023-08-15T09:50:02.478Z,33.71
2023-08-15T09:51:02.512Z,33.68
2023-08-15T09:52:02.474Z,33.73
2023-08-15T09:53:02.501Z,33.84
2023-08-15T09:54:02.471Z,34.24
2023-08-15T09:55:02.468Z,33.42
2023-08-15T09:56:02.442Z,32.80
2023-08-15T09:57:02.458Z,32.82
2023-08-15T09:58:02.425Z,33.04
2023-08-15T09:59:02.445Z,33.17
2023-08-15T10:00:02.416Z,33.64
2023-08-15T10:01:02.477Z,33.46
2023-08-15T10:02:02.407Z,33.71
2023-08-15T10:03:02.499Z,33.89
2023-08-15T10:04:02.412Z,34.16
2023-08-15T10:05:02.415Z,33.79
2023-08-15T10:06:02.408Z,32.53
2023-08-15T10:07:02.388Z,32.48
2023-08-15T10:08:02.363Z,33.02
2023-08-15T10:09:02.369Z,33.50
2023-08-15T10:10:02.356Z,33.95
2023-08-15T10:11:02.367Z,34.08
2023-08-15T10:12:02.385Z,34.25
2023-08-15T10:13:02.343Z,34.35
2023-08-15T10:14:02.325Z,34.71
2023-08-15T10:15:02.350Z,34.58
2023-08-15T10:16:02.312Z,34.55
2023-08-15T10:17:02.466Z,34.80
2023-08-15T10:18:02.404Z,34.96
2023-08-15T10:19:02.311Z,34.95
2023-08-15T10:20:04.473Z,34.55
2023-08-15T10:21:02.303Z,34.32
2023-08-15T10:22:02.264Z,32.67
2023-08-15T10:23:02.338Z,32.26
2023-08-15T10:24:02.264Z,32.93
2023-08-15T10:25:03.160Z,33.37
2023-08-15T10:26:02.259Z,33.01
2023-08-15T10:27:02.299Z,32.70
2023-08-15T10:28:02.228Z,32.93
2023-08-15T10:29:02.282Z,31.65
2023-08-15T10:30:02.231Z,30.87
2023-08-15T10:31:02.312Z,30.85
2023-08-15T10:32:02.240Z,31.89
2023-08-15T10:33:02.259Z,32.27
2023-08-15T10:34:02.197Z,32.53
2023-08-15T10:35:02.215Z,32.85
2023-08-15T10:36:02.200Z,32.46
2023-08-15T10:37:02.194Z,31.69
2023-08-15T10:38:02.197Z,31.70
2023-08-15T10:39:02.180Z,30.57
2023-08-15T10:40:02.164Z,30.94
2023-08-15T10:41:02.171Z,31.31
2023-08-15T10:42:02.133Z,31.05
2023-08-15T10:43:02.187Z,30.99
2023-08-15T10:44:02.146Z,30.78
2023-08-15T10:45:02.253Z,30.92
2023-08-15T10:46:02.165Z,30.62
2023-08-15T10:47:02.119Z,31.39
2023-08-15T10:48:03.739Z,32.19
2023-08-15T10:49:04.215Z,32.78
2023-08-15T10:50:02.114Z,32.93
2023-08-15T10:51:02.099Z,32.80
2023-08-15T10:52:02.068Z,32.74
2023-08-15T10:53:02.106Z,32.89
2023-08-15T10:54:02.152Z,32.83
2023-08-15T10:55:02.075Z,33.14
2023-08-15T10:56:02.040Z,33.42
2023-08-15T10:57:02.049Z,33.58
2023-08-15T10:58:02.041Z,33.59
2023-08-15T10:59:02.056Z,33.01
2023-08-15T11:00:02.016Z,32.65
2023-08-15T11:01:02.047Z,32.56
2023-08-15T11:02:02.052Z,32.80
2023-08-15T11:03:02.063Z,33.01
2023-08-15T11:04:01.982Z,33.31
2023-08-15T11:05:02.028Z,33.68
2023-08-15T11:06:01.979Z,33.49
2023-08-15T11:07:02.012Z,33.04
2023-08-15T11:08:01.990Z,32.45
2023-08-15T11:09:01.988Z,32.45
2023-08-15T11:10:01.984Z,32.93
2023-08-15T11:11:01.967Z,32.71
2023-08-15T11:12:01.991Z,32.68
2023-08-15T11:13:01.973Z,32.58
2023-08-15T11:14:01.924Z,32.15
2023-08-15T11:15:01.945Z,32.55
2023-08-15T11:16:01.961Z,32.45
2023-08-15T11:17:01.942Z,31.61
2023-08-15T11:18:01.969Z,31.89
2023-08-15T11:19:01.924Z,31.99
2023-08-15T11:20:01.891Z,32.04
2023-08-15T11:21:01.918Z,32.74
2023-08-15T11:22:01.883Z,33.24
2023-08-15T11:23:01.886Z,33.81
2023-08-15T11:24:01.903Z,34.10
2023-08-15T11:25:01.880Z,34.39
2023-08-15T11:26:01.848Z,34.57
2023-08-15T11:27:01.856Z,34.20
2023-08-15T11:28:01.838Z,34.48
2023-08-15T11:29:01.868Z,33.65
2023-08-15T11:30:01.850Z,33.62
2023-08-15T11:31:12.557Z,33.80
2023-08-15T11:32:02.846Z,33.89
2023-08-15T11:33:01.870Z,34.17
2023-08-15T11:34:01.809Z,34.18
2023-08-15T11:35:01.804Z,33.83
2023-08-15T11:36:01.813Z,33.53
2023-08-15T11:37:01.796Z,33.87
2023-08-15T11:38:01.831Z,33.86
2023-08-15T11:39:01.830Z,33.62
2023-08-15T11:40:01.797Z,33.11
2023-08-15T11:41:01.779Z,33.23
2023-08-15T11:42:01.738Z,33.50
2023-08-15T11:43:01.751Z,33.77
2023-08-15T11:44:01.753Z,34.02
2023-08-15T11:45:01.754Z,33.77
2023-08-15T11:46:01.796Z,33.76
2023-08-15T11:47:08.786Z,33.59
2023-08-15T11:48:01.769Z,33.80
2023-08-15T11:49:01.713Z,34.01
2023-08-15T11:50:01.708Z,33.87
2023-08-15T11:51:01.734Z,34.05
2023-08-15T11:52:01.676Z,34.30
2023-08-15T11:53:01.724Z,34.17
2023-08-15T11:54:01.662Z,34.05
2023-08-15T11:55:01.680Z,34.13
2023-08-15T11:56:01.671Z,34.42
2023-08-15T11:57:01.685Z,34.70
2023-08-15T11:58:01.654Z,34.85
2023-08-15T11:59:01.704Z,34.38
2023-08-15T12:00:01.625Z,33.46
2023-08-15T12:01:01.665Z,32.87
2023-08-15T12:02:01.622Z,33.15
2023-08-15T12:03:01.661Z,33.50
2023-08-15T12:04:01.636Z,33.90
2023-08-15T12:05:01.629Z,34.05
2023-08-15T12:06:01.622Z,34.33
2023-08-15T12:07:01.597Z,34.40
2023-08-15T12:08:01.587Z,34.54
2023-08-15T12:09:01.607Z,34.08
2023-08-15T12:10:02.068Z,34.10
2023-08-15T12:11:01.573Z,34.11
2023-08-15T12:12:01.587Z,34.16
2023-08-15T12:13:01.557Z,33.90
2023-08-15T12:14:01.544Z,33.92
2023-08-15T12:15:01.560Z,33.84
2023-08-15T12:16:01.649Z,34.08
2023-08-15T12:17:01.539Z,33.81
2023-08-15T12:18:01.660Z,33.79
2023-08-15T12:19:01.511Z,33.99
2023-08-15T12:20:01.502Z,34.11
2023-08-15T12:21:01.522Z,34.17
2023-08-15T12:22:01.508Z,34.32
2023-08-15T12:23:01.486Z,34.10
2023-08-15T12:24:01.526Z,33.99
2023-08-15T12:25:01.523Z,33.80
2023-08-15T12:26:01.460Z,33.59
2023-08-15T12:27:01.509Z,33.57
2023-08-15T12:28:01.461Z,33.59
2023-08-15T12:29:01.451Z,33.43
2023-08-15T12:30:12.092Z,33.23
2023-08-15T12:31:02.504Z,33.01
2023-08-15T12:32:01.454Z,33.05
2023-08-15T12:33:01.465Z,33.01
2023-08-15T12:34:01.417Z,33.04
2023-08-15T12:35:01.438Z,33.17
2023-08-15T12:36:01.401Z,33.28
2023-08-15T12:37:01.417Z,33.22
2023-08-15T12:38:01.397Z,33.59
2023-08-15T12:39:01.446Z,33.94
2023-08-15T12:40:01.373Z,33.65
2023-08-15T12:41:01.393Z,33.53
2023-08-15T12:42:01.349Z,33.31
2023-08-15T12:43:01.446Z,33.32
2023-08-15T12:44:01.336Z,33.34
2023-08-15T12:45:01.369Z,33.24
2023-08-15T12:46:01.371Z,33.19
2023-08-15T12:47:01.351Z,32.89
2023-08-15T12:48:01.393Z,32.90
2023-08-15T12:49:01.337Z,32.34
2023-08-15T12:50:01.313Z,32.23
2023-08-15T12:51:01.324Z,32.19
2023-08-15T12:52:01.304Z,32.38